首页
METAR-TAF:

METAR-TAF

机场 :

文莱, 文莱

汶萊國際機場

纬度: 04-56N, 经度: 114-56E, 海拔: 22米

当前天气观测

该预报发布于48分钟前的12:30 UTC
风速1节,风向西
温度 28°C
湿度 79%
气压 1007 hPa
能见度10公里或以上
少量云层高于1500英尺
多云层高于14000英尺

METAR: WBSB 171230Z 28001KT 9999 FEW015 BKN140 28/24 Q1007 RESHRA NOSIG

时间: 21:18 (13:18 UTC)

预报

该预报发布于2小时和28分钟前的10:50 UTC
预报有效从17日的 12点(UTC)到 18日的 18点(UTC)
风速3节,风向南转西南
能见度10公里或以上
散云层高于1500英尺
少量云层高于1600英尺, 积雨云.
短暂存在
从 17日的 13点(UTC)到 17日的 15点(UTC)
能見度: 7000
阵雨, 雷暴, 雨
成为
从 18日的 02点(UTC)到 18日的 04点(UTC)
风速10节,风向西
散云层高于1600英尺
少量云层高于1700英尺, 积雨云.
短暂存在
从 18日的 04点(UTC)到 18日的 06点(UTC)
能見度: 5000
阵雨

TAF: WBSB 171050Z 1712/1818 20003KT 9999 SCT015 FEW016CB TEMPO 1713/1715 7000 SHRA TSRA BECMG 1802/1804 26010KT SCT016 FEW017CB TEMPO 1804/1806 5000 SHRA

超过4000个机场的气象观测和天气预报(METAR&TAF报告)。

可查询的气象台以黄色和红色小点在地图上表示。

将鼠标移到小点上方,可查看气象台名称。

然后点击查看天气观测和预报。

如需切换地图:点击带黑十字的绿色按钮放大地图;点击带横线的绿色按钮缩小地图;或者点击绿色箭头查看邻近地区的地图。


METAR-TAF: